Bow Valley, Alberta

8:50 AM MST on February 09, 2016 (GMT -0700)
Lac des Arcs | | Change Station
CLOSE
Current Station
Personal Weather Station
Location: Lac Des Arcs, ALBERTA
Elevation: 4288 ft
Nearby Weather Stations

Elev 4288 ft 51.05 °N, 115.16 °W | Updated 26 seconds ago

Clear
Clear
37.3 °F
Feels Like 37 °F
N
0.0
Wind Variable Wind from ESE
Gusts 5.0 mph

Today is forecast to be nearly the same temperature as yesterday.

Today
High -- | Low -- °F
--% Chance of Precip.
Yesterday
High -- | Low -- °F
Precip. -- in
Pressure 30.33 in
Visibility 9.0 miles
Clouds Clear
Windchill 37 °F
Dew Point 27 °F
Humidity 65%
Rainfall 0.00 in
Snow Depth Not available.
8:04 AM 5:45 PM
New Moon, 1% visible
METAR CYBW 091500Z AUTO 32009KT 9SM CLR M01/M05 A3019 RMK SLP269
Pressure 30.33 in
Visibility 9.0 miles
Clouds Clear
Windchill 37 °F
Dew Point 27 °F
Humidity 65%
Rainfall 0.00 in
Snow Depth Not available.
8:04 AM 5:45 PM
New Moon, 1% visible
METAR CYBW 091500Z AUTO 32009KT 9SM CLR M01/M05 A3019 RMK SLP269

10-Day Weather Forecast

No radar image for this location.
×

Almanac

Astronomy

Feb. 09, 2016 Rise Set
Actual Time
Civil Twilight
Nautical Twilight
Astronomical Twilight
Moon
Length of Visible Light
Length of Day
Tomorrow will be .
, % of the Moon is Illuminated

Today's Extremes

Country Highs Country Lows

Community

WunderPhotos

Upload Photos

1,891,628 photos uploaded!

WunderBlog® & News

Nearby

Air Quality

  Air Quality AQ Index Pollutant
Not available.

Snow Depth

Station Depth Elevation

Earthquake Activity

City Distance Mag. Time & Date
Minimum magnitude displayed is 2.5.

Coastal Water Temperatures

Place Temperature

Stations

Nearby Weather Stations

Station Location Temp. Windchill Dew Point Humidity Wind Precip. Elev Updated Type
                   

Watches & Warnings

There are currently no watches in effect.